sensor_id;sensor_type;location;lat;lon;timestamp;pressure;altitude;pressure_sealevel;temperature;humidity
8298;BME280;4187;42.778;23.242;2023-03-04T00:01:30;95345.47;;;6.27;100.00
8298;BME280;4187;42.778;23.242;2023-03-04T00:03:56;95342.97;;;6.25;100.00
8298;BME280;4187;42.778;23.242;2023-03-04T00:06:23;95324.00;;;6.11;100.00
8298;BME280;4187;42.778;23.242;2023-03-04T00:08:50;95339.03;;;6.31;100.00
8298;BME280;4187;42.778;23.242;2023-03-04T00:11:17;95343.81;;;6.37;100.00
8298;BME280;4187;42.778;23.242;2023-03-04T00:13:44;95346.69;;;6.45;100.00
8298;BME280;4187;42.778;23.242;2023-03-04T00:16:12;95341.06;;;6.38;100.00
8298;BME280;4187;42.778;23.242;2023-03-04T00:18:39;95304.84;;;6.21;100.00
8298;BME280;4187;42.778;23.242;2023-03-04T00:21:05;95341.53;;;6.43;100.00
8298;BME280;4187;42.778;23.242;2023-03-04T00:23:32;95344.75;;;6.47;100.00
8298;BME280;4187;42.778;23.242;2023-03-04T00:25:59;95332.38;;;6.38;100.00
8298;BME280;4187;42.778;23.242;2023-03-04T00:28:26;95268.00;;;6.00;100.00
8298;BME280;4187;42.778;23.242;2023-03-04T00:30:53;95337.97;;;6.44;100.00
8298;BME280;4187;42.778;23.242;2023-03-04T00:33:21;95330.72;;;6.48;100.00
8298;BME280;4187;42.778;23.242;2023-03-04T00:35:48;95333.19;;;6.49;100.00
8298;BME280;4187;42.778;23.242;2023-03-04T00:38:15;95324.38;;;6.39;100.00
8298;BME280;4187;42.778;23.242;2023-03-04T00:40:42;95315.69;;;6.39;100.00
8298;BME280;4187;42.778;23.242;2023-03-04T00:43:09;95319.50;;;6.35;100.00
8298;BME280;4187;42.778;23.242;2023-03-04T00:45:35;95319.84;;;6.41;100.00
8298;BME280;4187;42.778;23.242;2023-03-04T00:48:02;95324.63;;;6.36;100.00
8298;BME280;4187;42.778;23.242;2023-03-04T00:50:31;95323.44;;;6.40;100.00
8298;BME280;4187;42.778;23.242;2023-03-04T00:52:57;95315.81;;;6.37;100.00
8298;BME280;4187;42.778;23.242;2023-03-04T00:55:24;95292.00;;;6.29;100.00
8298;BME280;4187;42.778;23.242;2023-03-04T00:57:52;95308.28;;;6.44;100.00
8298;BME280;4187;42.778;23.242;2023-03-04T01:00:19;95300.66;;;6.41;100.00
8298;BME280;4187;42.778;23.242;2023-03-04T01:02:46;95304.84;;;6.43;100.00
8298;BME280;4187;42.778;23.242;2023-03-04T01:05:13;95314.50;;;6.43;100.00
8298;BME280;4187;42.778;23.242;2023-03-04T01:07:42;95300.09;;;6.48;100.00
8298;BME280;4187;42.778;23.242;2023-03-04T01:10:10;95304.38;;;6.49;100.00
8298;BME280;4187;42.778;23.242;2023-03-04T01:12:37;95309.97;;;6.56;100.00
8298;BME280;4187;42.778;23.242;2023-03-04T01:15:07;95310.34;;;6.51;100.00
8298;BME280;4187;42.778;23.242;2023-03-04T01:17:34;95310.44;;;6.50;100.00
8298;BME280;4187;42.778;23.242;2023-03-04T01:20:01;95304.97;;;6.42;100.00
8298;BME280;4187;42.778;23.242;2023-03-04T01:22:28;95308.19;;;6.45;100.00
8298;BME280;4187;42.778;23.242;2023-03-04T01:24:56;95312.69;;;6.54;100.00
8298;BME280;4187;42.778;23.242;2023-03-04T01:27:23;95308.31;;;6.55;100.00
8298;BME280;4187;42.778;23.242;2023-03-04T01:29:49;95308.66;;;6.50;100.00
8298;BME280;4187;42.778;23.242;2023-03-04T01:32:16;95297.09;;;6.53;100.00
8298;BME280;4187;42.778;23.242;2023-03-04T01:34:43;95295.91;;;6.57;100.00
8298;BME280;4187;42.778;23.242;2023-03-04T01:37:11;95292.47;;;6.45;100.00
8298;BME280;4187;42.778;23.242;2023-03-04T01:39:38;95298.56;;;6.46;100.00
8298;BME280;4187;42.778;23.242;2023-03-04T01:42:13;95298.41;;;6.36;100.00
8298;BME280;4187;42.778;23.242;2023-03-04T01:44:43;95290.22;;;6.30;100.00
8298;BME280;4187;42.778;23.242;2023-03-04T01:47:10;95284.13;;;6.29;100.00
8298;BME280;4187;42.778;23.242;2023-03-04T01:49:37;95285.66;;;6.21;100.00
8298;BME280;4187;42.778;23.242;2023-03-04T01:52:05;95281.75;;;6.26;100.00
8298;BME280;4187;42.778;23.242;2023-03-04T01:54:35;95283.28;;;6.29;100.00
8298;BME280;4187;42.778;23.242;2023-03-04T01:57:15;95276.03;;;6.32;100.00
8298;BME280;4187;42.778;23.242;2023-03-04T01:59:43;95273.75;;;6.39;100.00
8298;BME280;4187;42.778;23.242;2023-03-04T02:02:10;95276.84;;;6.33;100.00
8298;BME280;4187;42.778;23.242;2023-03-04T02:04:38;95276.75;;;6.45;100.00
8298;BME280;4187;42.778;23.242;2023-03-04T02:07:07;95247.31;;;6.31;100.00
8298;BME280;4187;42.778;23.242;2023-03-04T02:09:34;95266.50;;;6.42;100.00
8298;BME280;4187;42.778;23.242;2023-03-04T02:12:01;95267.66;;;6.38;100.00
8298;BME280;4187;42.778;23.242;2023-03-04T02:14:30;95265.66;;;6.42;100.00
8298;BME280;4187;42.778;23.242;2023-03-04T02:16:57;95266.97;;;6.36;100.00
8298;BME280;4187;42.778;23.242;2023-03-04T02:19:34;95269.94;;;6.43;100.00
8298;BME280;4187;42.778;23.242;2023-03-04T02:22:03;95267.34;;;6.43;100.00
8298;BME280;4187;42.778;23.242;2023-03-04T02:24:33;95269.94;;;6.32;100.00
8298;BME280;4187;42.778;23.242;2023-03-04T02:27:03;95269.59;;;6.36;100.00
8298;BME280;4187;42.778;23.242;2023-03-04T02:29:30;95265.19;;;6.26;100.00
8298;BME280;4187;42.778;23.242;2023-03-04T02:31:57;95280.31;;;6.33;100.00
8298;BME280;4187;42.778;23.242;2023-03-04T02:34:26;95276.75;;;6.34;100.00
8298;BME280;4187;42.778;23.242;2023-03-04T02:36:55;95272.44;;;6.33;100.00
8298;BME280;4187;42.778;23.242;2023-03-04T02:39:26;95267.31;;;6.10;100.00
8298;BME280;4187;42.778;23.242;2023-03-04T02:41:54;95273.88;;;6.15;100.00
8298;BME280;4187;42.778;23.242;2023-03-04T02:44:24;95267.44;;;6.08;100.00
8298;BME280;4187;42.778;23.242;2023-03-04T02:46:52;95257.28;;;5.92;100.00
8298;BME280;4187;42.778;23.242;2023-03-04T02:49:20;95261.94;;;5.89;100.00
8298;BME280;4187;42.778;23.242;2023-03-04T02:51:50;95263.22;;;5.83;100.00
8298;BME280;4187;42.778;23.242;2023-03-04T02:54:19;95253.50;;;5.85;100.00
8298;BME280;4187;42.778;23.242;2023-03-04T02:56:47;95257.78;;;5.86;100.00
8298;BME280;4187;42.778;23.242;2023-03-04T02:59:14;95257.53;;;5.89;100.00
8298;BME280;4187;42.778;23.242;2023-03-04T03:01:43;95257.19;;;5.94;100.00
8298;BME280;4187;42.778;23.242;2023-03-04T03:04:11;95252.44;;;5.99;100.00
8298;BME280;4187;42.778;23.242;2023-03-04T03:06:38;95250.97;;;5.95;100.00
8298;BME280;4187;42.778;23.242;2023-03-04T03:09:05;95257.28;;;5.92;100.00
8298;BME280;4187;42.778;23.242;2023-03-04T03:11:32;95260.66;;;5.94;100.00
8298;BME280;4187;42.778;23.242;2023-03-04T03:13:59;95227.38;;;5.73;100.00
8298;BME280;4187;42.778;23.242;2023-03-04T03:16:26;95260.66;;;5.94;100.00
8298;BME280;4187;42.778;23.242;2023-03-04T03:18:54;95262.19;;;5.97;100.00
8298;BME280;4187;42.778;23.242;2023-03-04T03:21:21;95256.72;;;6.00;100.00
8298;BME280;4187;42.778;23.242;2023-03-04T03:23:48;95227.03;;;5.77;100.00
8298;BME280;4187;42.778;23.242;2023-03-04T03:26:15;95256.72;;;6.00;100.00
8298;BME280;4187;42.778;23.242;2023-03-04T03:28:42;95260.91;;;6.03;100.00
8298;BME280;4187;42.778;23.242;2023-03-04T03:31:09;95234.41;;;5.83;100.00
8298;BME280;4187;42.778;23.242;2023-03-04T03:33:36;95253.38;;;5.98;100.00
8298;BME280;4187;42.778;23.242;2023-03-04T03:36:06;95253.38;;;5.98;100.00
8298;BME280;4187;42.778;23.242;2023-03-04T03:38:33;95251.59;;;5.98;100.00
8298;BME280;4187;42.778;23.242;2023-03-04T03:41:00;95248.13;;;5.98;100.00
8298;BME280;4187;42.778;23.242;2023-03-04T03:43:27;95252.53;;;5.97;100.00
8298;BME280;4187;42.778;23.242;2023-03-04T03:45:54;95251.59;;;5.98;100.00
8298;BME280;4187;42.778;23.242;2023-03-04T03:48:21;95251.97;;;5.94;100.00
8298;BME280;4187;42.778;23.242;2023-03-04T03:50:48;95248.63;;;5.92;100.00
8298;BME280;4187;42.778;23.242;2023-03-04T03:53:16;95250.41;;;5.91;100.00
8298;BME280;4187;42.778;23.242;2023-03-04T03:55:43;95242.97;;;5.74;100.00
8298;BME280;4187;42.778;23.242;2023-03-04T03:58:10;95242.22;;;5.61;100.00
8298;BME280;4187;42.778;23.242;2023-03-04T04:00:36;95237.69;;;5.52;100.00
8298;BME280;4187;42.778;23.242;2023-03-04T04:03:03;95238.38;;;5.43;100.00
8298;BME280;4187;42.778;23.242;2023-03-04T04:05:30;95229.09;;;5.39;100.00
8298;BME280;4187;42.778;23.242;2023-03-04T04:07:57;95235.16;;;5.39;100.00
8298;BME280;4187;42.778;23.242;2023-03-04T04:10:25;95231.47;;;5.42;100.00
8298;BME280;4187;42.778;23.242;2023-03-04T04:12:52;95233.03;;;5.44;100.00
8298;BME280;4187;42.778;23.242;2023-03-04T04:15:19;95226.94;;;5.44;100.00
8298;BME280;4187;42.778;23.242;2023-03-04T04:17:46;95226.72;;;5.47;100.00
8298;BME280;4187;42.778;23.242;2023-03-04T04:20:13;95236.03;;;5.51;100.00
8298;BME280;4187;42.778;23.242;2023-03-04T04:22:39;95232.22;;;5.55;100.00
8298;BME280;4187;42.778;23.242;2023-03-04T04:25:07;95229.13;;;5.50;100.00
8298;BME280;4187;42.778;23.242;2023-03-04T04:27:36;95228.28;;;5.50;100.00
8298;BME280;4187;42.778;23.242;2023-03-04T04:30:04;95193.47;;;5.25;100.00
8298;BME280;4187;42.778;23.242;2023-03-04T04:32:31;95234.13;;;5.53;100.00
8298;BME280;4187;42.778;23.242;2023-03-04T04:34:58;95228.63;;;5.45;100.00
8298;BME280;4187;42.778;23.242;2023-03-04T04:37:25;95227.03;;;5.31;100.00
8298;BME280;4187;42.778;23.242;2023-03-04T04:39:52;95228.81;;;5.31;100.00
8298;BME280;4187;42.778;23.242;2023-03-04T04:42:20;95227.63;;;5.24;100.00
8298;BME280;4187;42.778;23.242;2023-03-04T04:44:48;95158.63;;;4.79;100.00
8298;BME280;4187;42.778;23.242;2023-03-04T04:47:16;95234.41;;;5.26;100.00
8298;BME280;4187;42.778;23.242;2023-03-04T04:49:43;95240.81;;;5.22;100.00
8298;BME280;4187;42.778;23.242;2023-03-04T04:52:10;95239.31;;;5.07;100.00
8298;BME280;4187;42.778;23.242;2023-03-04T04:54:37;95216.09;;;4.92;100.00
8298;BME280;4187;42.778;23.242;2023-03-04T04:57:04;95147.34;;;4.55;100.00
8298;BME280;4187;42.778;23.242;2023-03-04T04:59:32;95239.69;;;5.03;100.00
8298;BME280;4187;42.778;23.242;2023-03-04T05:02:00;95248.22;;;5.05;100.00
8298;BME280;4187;42.778;23.242;2023-03-04T05:04:27;95242.03;;;5.06;100.00
8298;BME280;4187;42.778;23.242;2023-03-04T05:06:53;95249.59;;;4.98;100.00
8298;BME280;4187;42.778;23.242;2023-03-04T05:09:21;95240.06;;;4.86;100.00
8298;BME280;4187;42.778;23.242;2023-03-04T05:11:48;95250.97;;;4.79;100.00
8298;BME280;4187;42.778;23.242;2023-03-04T05:14:15;95256.78;;;4.59;100.00
8298;BME280;4187;42.778;23.242;2023-03-04T05:16:44;95243.59;;;4.37;100.00
8298;BME280;4187;42.778;23.242;2023-03-04T05:19:18;95254.88;;;4.25;100.00
8298;BME280;4187;42.778;23.242;2023-03-04T05:21:45;95260.75;;;4.16;100.00
8298;BME280;4187;42.778;23.242;2023-03-04T05:24:12;95261.88;;;4.24;100.00
8298;BME280;4187;42.778;23.242;2023-03-04T05:26:40;95273.38;;;4.22;100.00
8298;BME280;4187;42.778;23.242;2023-03-04T05:29:07;95272.56;;;4.21;100.00
8298;BME280;4187;42.778;23.242;2023-03-04T05:31:34;95277.47;;;4.13;100.00
8298;BME280;4187;42.778;23.242;2023-03-04T05:34:01;95279.25;;;4.13;100.00
8298;BME280;4187;42.778;23.242;2023-03-04T05:36:29;95275.59;;;4.03;100.00
8298;BME280;4187;42.778;23.242;2023-03-04T05:38:56;95264.75;;;3.96;100.00
8298;BME280;4187;42.778;23.242;2023-03-04T05:41:23;95278.31;;;4.01;100.00
8298;BME280;4187;42.778;23.242;2023-03-04T05:43:50;95270.69;;;3.98;100.00
8298;BME280;4187;42.778;23.242;2023-03-04T05:46:17;95283.81;;;4.22;100.00
8298;BME280;4187;42.778;23.242;2023-03-04T05:48:50;95283.53;;;4.27;100.00
8298;BME280;4187;42.778;23.242;2023-03-04T05:51:17;95283.41;;;4.28;100.00
8298;BME280;4187;42.778;23.242;2023-03-04T05:53:45;95281.41;;;4.32;100.00
8298;BME280;4187;42.778;23.242;2023-03-04T05:56:13;95280.47;;;4.33;100.00
8298;BME280;4187;42.778;23.242;2023-03-04T05:58:41;95288.09;;;4.36;100.00
8298;BME280;4187;42.778;23.242;2023-03-04T06:01:08;95288.59;;;4.41;100.00
8298;BME280;4187;42.778;23.242;2023-03-04T06:03:35;95290.69;;;4.48;100.00
8298;BME280;4187;42.778;23.242;2023-03-04T06:06:02;95300.38;;;4.46;100.00
8298;BME280;4187;42.778;23.242;2023-03-04T06:08:28;95292.34;;;4.49;100.00
8298;BME280;4187;42.778;23.242;2023-03-04T06:10:57;95296.84;;;4.47;100.00
8298;BME280;4187;42.778;23.242;2023-03-04T06:13:25;95301.03;;;4.50;100.00
8298;BME280;4187;42.778;23.242;2023-03-04T06:15:53;95226.91;;;4.14;100.00
8298;BME280;4187;42.778;23.242;2023-03-04T06:18:20;95294.94;;;4.49;100.00
8298;BME280;4187;42.778;23.242;2023-03-04T06:20:47;95305.28;;;4.63;100.00
8298;BME280;4187;42.778;23.242;2023-03-04T06:23:14;95304.63;;;4.72;100.00
8298;BME280;4187;42.778;23.242;2023-03-04T06:25:41;95308.69;;;4.76;100.00
8298;BME280;4187;42.778;23.242;2023-03-04T06:28:09;95304.03;;;4.93;100.00
8298;BME280;4187;42.778;23.242;2023-03-04T06:30:36;95299.25;;;5.10;100.00
8298;BME280;4187;42.778;23.242;2023-03-04T06:33:03;95305.88;;;5.27;100.00
8298;BME280;4187;42.778;23.242;2023-03-04T06:35:29;95311.03;;;5.39;100.00
8298;BME280;4187;42.778;23.242;2023-03-04T06:37:56;95315.25;;;5.53;100.00
8298;BME280;4187;42.778;23.242;2023-03-04T06:40:23;95308.69;;;5.48;100.00
8298;BME280;4187;42.778;23.242;2023-03-04T06:42:50;95318.50;;;5.57;100.00
8298;BME280;4187;42.778;23.242;2023-03-04T06:45:18;95315.25;;;5.53;100.00
8298;BME280;4187;42.778;23.242;2023-03-04T06:47:45;95315.16;;;5.66;100.00
8298;BME280;4187;42.778;23.242;2023-03-04T06:50:12;95314.72;;;5.72;100.00
8298;BME280;4187;42.778;23.242;2023-03-04T06:52:39;95293.16;;;5.68;100.00
8298;BME280;4187;42.778;23.242;2023-03-04T06:55:07;95316.47;;;5.95;100.00
8298;BME280;4187;42.778;23.242;2023-03-04T06:57:34;95312.31;;;6.03;100.00
8298;BME280;4187;42.778;23.242;2023-03-04T07:00:01;95263.84;;;5.87;100.00
8298;BME280;4187;42.778;23.242;2023-03-04T07:02:30;95314.97;;;6.26;100.00
8298;BME280;4187;42.778;23.242;2023-03-04T07:04:57;95313.06;;;6.39;100.00
8298;BME280;4187;42.778;23.242;2023-03-04T07:07:24;95302.22;;;6.43;100.00
8298;BME280;4187;42.778;23.242;2023-03-04T07:09:51;95319.38;;;6.58;100.00
8298;BME280;4187;42.778;23.242;2023-03-04T07:12:18;95316.88;;;6.68;100.00
8298;BME280;4187;42.778;23.242;2023-03-04T07:14:45;95296.03;;;6.55;100.00
8298;BME280;4187;42.778;23.242;2023-03-04T07:17:12;95324.50;;;6.82;100.00
8298;BME280;4187;42.778;23.242;2023-03-04T07:19:40;95323.06;;;6.89;100.00
8298;BME280;4187;42.778;23.242;2023-03-04T07:22:07;95332.94;;;6.97;100.00
8298;BME280;4187;42.778;23.242;2023-03-04T07:24:34;95336.38;;;7.08;100.00
8298;BME280;4187;42.778;23.242;2023-03-04T07:27:01;95322.00;;;8.79;100.00
8298;BME280;4187;42.778;23.242;2023-03-04T07:29:28;95323.13;;;10.22;100.00
8298;BME280;4187;42.778;23.242;2023-03-04T07:31:54;95321.91;;;9.97;100.00
8298;BME280;4187;42.778;23.242;2023-03-04T07:34:21;95331.19;;;9.53;100.00
8298;BME280;4187;42.778;23.242;2023-03-04T07:36:49;95327.88;;;9.51;100.00
8298;BME280;4187;42.778;23.242;2023-03-04T07:39:16;95332.53;;;9.29;100.00
8298;BME280;4187;42.778;23.242;2023-03-04T07:41:43;95323.59;;;9.01;100.00
8298;BME280;4187;42.778;23.242;2023-03-04T07:44:11;95344.66;;;8.71;100.00
8298;BME280;4187;42.778;23.242;2023-03-04T07:46:38;95347.38;;;8.60;100.00
8298;BME280;4187;42.778;23.242;2023-03-04T07:49:04;95343.44;;;8.45;100.00
8298;BME280;4187;42.778;23.242;2023-03-04T07:51:31;95345.03;;;8.36;100.00
8298;BME280;4187;42.778;23.242;2023-03-04T07:54:01;95344.75;;;8.29;100.00
8298;BME280;4187;42.778;23.242;2023-03-04T07:56:29;95326.88;;;8.12;100.00
8298;BME280;4187;42.778;23.242;2023-03-04T07:58:56;95321.59;;;8.03;100.00
8298;BME280;4187;42.778;23.242;2023-03-04T08:01:25;95343.94;;;8.18;100.00
8298;BME280;4187;42.778;23.242;2023-03-04T08:03:53;95346.97;;;8.13;100.00
8298;BME280;4187;42.778;23.242;2023-03-04T08:06:21;95339.44;;;8.09;100.00
8298;BME280;4187;42.778;23.242;2023-03-04T08:08:49;95337.91;;;8.06;100.00
8298;BME280;4187;42.778;23.242;2023-03-04T08:11:22;95346.56;;;8.18;100.00
8298;BME280;4187;42.778;23.242;2023-03-04T08:13:49;95348.94;;;8.21;100.00
8298;BME280;4187;42.778;23.242;2023-03-04T08:16:19;95344.38;;;8.23;100.00
8298;BME280;4187;42.778;23.242;2023-03-04T08:18:47;95337.19;;;8.25;100.00
8298;BME280;4187;42.778;23.242;2023-03-04T08:21:16;95338.66;;;8.29;100.00
8298;BME280;4187;42.778;23.242;2023-03-04T08:23:44;95337.56;;;8.31;100.00
8298;BME280;4187;42.778;23.242;2023-03-04T08:26:14;95334.78;;;8.33;100.00
8298;BME280;4187;42.778;23.242;2023-03-04T08:28:43;95336.91;;;8.39;100.00
8298;BME280;4187;42.778;23.242;2023-03-04T08:31:11;95303.16;;;8.23;100.00
8298;BME280;4187;42.778;23.242;2023-03-04T08:33:38;95349.38;;;8.47;100.00
8298;BME280;4187;42.778;23.242;2023-03-04T08:36:05;95342.66;;;8.54;100.00
8298;BME280;4187;42.778;23.242;2023-03-04T08:38:32;95335.47;;;8.56;100.00
8298;BME280;4187;42.778;23.242;2023-03-04T08:40:59;95336.22;;;8.67;100.00
8298;BME280;4187;42.778;23.242;2023-03-04T08:43:27;95329.13;;;8.68;100.00
8298;BME280;4187;42.778;23.242;2023-03-04T08:45:55;95332.06;;;8.65;100.00
8298;BME280;4187;42.778;23.242;2023-03-04T08:48:22;95331.38;;;8.72;100.00
8298;BME280;4187;42.778;23.242;2023-03-04T08:50:50;95333.34;;;8.80;100.00
8298;BME280;4187;42.778;23.242;2023-03-04T08:53:18;95327.00;;;8.82;100.00
8298;BME280;4187;42.778;23.242;2023-03-04T08:55:45;95322.47;;;8.94;100.00
8298;BME280;4187;42.778;23.242;2023-03-04T08:58:13;95330.53;;;9.02;100.00
8298;BME280;4187;42.778;23.242;2023-03-04T09:00:42;95303.56;;;9.29;100.00
8298;BME280;4187;42.778;23.242;2023-03-04T09:03:14;95300.53;;;9.81;100.00
8298;BME280;4187;42.778;23.242;2023-03-04T09:05:44;95303.72;;;9.66;100.00
8298;BME280;4187;42.778;23.242;2023-03-04T09:08:11;95319.53;;;9.56;100.00
8298;BME280;4187;42.778;23.242;2023-03-04T09:10:38;95320.38;;;9.56;100.00
8298;BME280;4187;42.778;23.242;2023-03-04T09:13:05;95327.72;;;9.43;100.00
8298;BME280;4187;42.778;23.242;2023-03-04T09:15:31;95311.72;;;9.35;100.00
8298;BME280;4187;42.778;23.242;2023-03-04T09:18:00;95320.22;;;9.48;100.00
8298;BME280;4187;42.778;23.242;2023-03-04T09:20:28;95315.50;;;9.42;100.00
8298;BME280;4187;42.778;23.242;2023-03-04T09:22:55;95312.72;;;9.44;100.00
8298;BME280;4187;42.778;23.242;2023-03-04T09:25:22;95310.38;;;9.50;100.00
8298;BME280;4187;42.778;23.242;2023-03-04T09:27:49;95303.31;;;9.60;100.00
8298;BME280;4187;42.778;23.242;2023-03-04T09:30:16;95296.50;;;9.77;100.00
8298;BME280;4187;42.778;23.242;2023-03-04T09:32:43;95304.84;;;9.82;100.00
8298;BME280;4187;42.778;23.242;2023-03-04T09:35:10;95315.66;;;9.89;100.00
8298;BME280;4187;42.778;23.242;2023-03-04T09:37:38;95308.56;;;9.99;100.00
8298;BME280;4187;42.778;23.242;2023-03-04T09:40:10;95304.25;;;9.98;100.00
8298;BME280;4187;42.778;23.242;2023-03-04T09:42:46;95299.84;;;9.89;100.00
8298;BME280;4187;42.778;23.242;2023-03-04T09:45:18;95303.72;;;9.75;100.00
8298;BME280;4187;42.778;23.242;2023-03-04T09:47:46;95298.47;;;9.75;100.00
8298;BME280;4187;42.778;23.242;2023-03-04T09:50:14;95230.38;;;9.42;100.00
8298;BME280;4187;42.778;23.242;2023-03-04T09:53:00;95295.28;;;9.81;100.00
8298;BME280;4187;42.778;23.242;2023-03-04T09:55:34;95296.34;;;9.79;100.00
8298;BME280;4187;42.778;23.242;2023-03-04T09:58:06;95290.41;;;9.86;100.00
8298;BME280;4187;42.778;23.242;2023-03-04T10:00:41;95290.53;;;9.94;100.00
8298;BME280;4187;42.778;23.242;2023-03-04T10:03:15;95294.56;;;10.08;100.00
8298;BME280;4187;42.778;23.242;2023-03-04T10:05:49;95288.59;;;10.15;100.00
8298;BME280;4187;42.778;23.242;2023-03-04T10:08:32;95288.84;;;10.32;100.00
8298;BME280;4187;42.778;23.242;2023-03-04T10:11:02;95281.97;;;10.48;100.00
8298;BME280;4187;42.778;23.242;2023-03-04T10:13:37;95287.75;;;10.61;100.00
8298;BME280;4187;42.778;23.242;2023-03-04T10:16:08;95274.81;;;10.68;100.00
8298;BME280;4187;42.778;23.242;2023-03-04T10:18:40;95266.88;;;10.68;100.00
8298;BME280;4187;42.778;23.242;2023-03-04T10:21:15;95278.09;;;10.79;100.00
8298;BME280;4187;42.778;23.242;2023-03-04T10:23:47;95247.63;;;10.58;100.00
8298;BME280;4187;42.778;23.242;2023-03-04T10:26:16;95221.50;;;10.28;100.00
8298;BME280;4187;42.778;23.242;2023-03-04T10:28:45;95242.13;;;10.42;100.00
8298;BME280;4187;42.778;23.242;2023-03-04T10:31:17;95260.53;;;10.61;100.00
8298;BME280;4187;42.778;23.242;2023-03-04T10:33:46;95264.41;;;10.66;100.00
8298;BME280;4187;42.778;23.242;2023-03-04T10:36:26;95253.94;;;10.74;100.00
8298;BME280;4187;42.778;23.242;2023-03-04T10:39:01;95245.53;;;10.89;100.00
8298;BME280;4187;42.778;23.242;2023-03-04T10:41:30;95249.34;;;11.04;100.00
8298;BME280;4187;42.778;23.242;2023-03-04T10:44:00;95241.84;;;11.26;100.00
8298;BME280;4187;42.778;23.242;2023-03-04T10:46:28;95234.28;;;11.49;100.00
8298;BME280;4187;42.778;23.242;2023-03-04T10:48:55;95239.78;;;11.56;100.00
8298;BME280;4187;42.778;23.242;2023-03-04T10:51:24;95219.19;;;11.59;100.00
8298;BME280;4187;42.778;23.242;2023-03-04T10:53:56;95226.41;;;11.57;100.00
8298;BME280;4187;42.778;23.242;2023-03-04T10:56:37;95230.91;;;11.74;100.00
8298;BME280;4187;42.778;23.242;2023-03-04T10:59:31;95226.09;;;11.95;100.00
8298;BME280;4187;42.778;23.242;2023-03-04T11:02:01;95220.31;;;12.18;100.00
8298;BME280;4187;42.778;23.242;2023-03-04T11:04:33;95212.31;;;12.35;100.00
8298;BME280;4187;42.778;23.242;2023-03-04T11:07:00;95205.28;;;12.52;100.00
8298;BME280;4187;42.778;23.242;2023-03-04T11:09:28;95192.44;;;12.65;99.37
8298;BME280;4187;42.778;23.242;2023-03-04T11:11:58;95192.47;;;12.73;99.31
8298;BME280;4187;42.778;23.242;2023-03-04T11:14:28;95196.16;;;12.88;98.09
8298;BME280;4187;42.778;23.242;2023-03-04T11:16:58;95190.38;;;13.01;98.54
8298;BME280;4187;42.778;23.242;2023-03-04T11:19:29;95178.22;;;13.08;96.27
8298;BME280;4187;42.778;23.242;2023-03-04T11:21:57;95168.50;;;12.83;92.68
8298;BME280;4187;42.778;23.242;2023-03-04T11:24:27;95167.44;;;12.59;93.28
8298;BME280;4187;42.778;23.242;2023-03-04T11:27:02;95170.84;;;12.52;95.29
8298;BME280;4187;42.778;23.242;2023-03-04T11:29:34;95152.97;;;12.38;96.51
8298;BME280;4187;42.778;23.242;2023-03-04T11:32:08;95161.66;;;12.30;96.51
8298;BME280;4187;42.778;23.242;2023-03-04T11:34:41;95160.13;;;12.20;97.56
8298;BME280;4187;42.778;23.242;2023-03-04T11:37:15;95146.53;;;12.15;97.85
8298;BME280;4187;42.778;23.242;2023-03-04T11:39:48;95142.13;;;12.23;100.00
8298;BME280;4187;42.778;23.242;2023-03-04T11:42:25;95130.25;;;12.27;99.98
8298;BME280;4187;42.778;23.242;2023-03-04T11:44:55;95137.84;;;12.30;98.69
8298;BME280;4187;42.778;23.242;2023-03-04T11:47:40;95130.75;;;12.31;96.57
8298;BME280;4187;42.778;23.242;2023-03-04T11:50:17;95128.47;;;12.44;99.15
8298;BME280;4187;42.778;23.242;2023-03-04T11:53:12;95130.69;;;12.56;100.00
8298;BME280;4187;42.778;23.242;2023-03-04T11:55:50;95123.91;;;12.54;98.10
8298;BME280;4187;42.778;23.242;2023-03-04T11:58:43;95124.56;;;12.56;99.19
8298;BME280;4187;42.778;23.242;2023-03-04T12:01:14;95118.63;;;12.54;99.98
8298;BME280;4187;42.778;23.242;2023-03-04T12:06:46;95120.59;;;12.60;100.00
8298;BME280;4187;42.778;23.242;2023-03-04T12:09:32;95116.47;;;12.66;99.63
8298;BME280;4187;42.778;23.242;2023-03-04T12:12:22;95095.13;;;12.59;98.43
8298;BME280;4187;42.778;23.242;2023-03-04T12:15:01;95109.34;;;12.58;98.54
8298;BME280;4187;42.778;23.242;2023-03-04T12:17:51;95096.44;;;12.55;99.76
8298;BME280;4187;42.778;23.242;2023-03-04T12:20:29;95102.38;;;12.57;100.00
8298;BME280;4187;42.778;23.242;2023-03-04T12:23:07;95098.59;;;12.51;100.00
8298;BME280;4187;42.778;23.242;2023-03-04T12:25:42;95090.47;;;12.53;100.00
8298;BME280;4187;42.778;23.242;2023-03-04T12:28:27;95097.66;;;12.85;100.00
8298;BME280;4187;42.778;23.242;2023-03-04T12:34:28;95086.47;;;13.31;97.83
8298;BME280;4187;42.778;23.242;2023-03-04T12:37:05;95090.91;;;13.55;97.02
8298;BME280;4187;42.778;23.242;2023-03-04T12:39:38;95086.28;;;13.73;95.91
8298;BME280;4187;42.778;23.242;2023-03-04T12:42:16;95088.72;;;13.83;95.23
8298;BME280;4187;42.778;23.242;2023-03-04T12:44:58;95088.22;;;13.79;94.46
8298;BME280;4187;42.778;23.242;2023-03-04T12:47:35;95087.94;;;13.66;93.32
8298;BME280;4187;42.778;23.242;2023-03-04T12:50:26;95082.97;;;13.55;94.02
8298;BME280;4187;42.778;23.242;2023-03-04T12:53:01;95078.81;;;13.52;94.31
8298;BME280;4187;42.778;23.242;2023-03-04T12:55:36;95077.00;;;13.53;94.39
8298;BME280;4187;42.778;23.242;2023-03-04T12:58:03;95065.25;;;13.47;94.46
8298;BME280;4187;42.778;23.242;2023-03-04T13:00:39;95066.75;;;13.34;94.56
8298;BME280;4187;42.778;23.242;2023-03-04T13:03:14;95055.19;;;13.27;94.24
8298;BME280;4187;42.778;23.242;2023-03-04T13:05:54;95063.47;;;13.15;92.96
8298;BME280;4187;42.778;23.242;2023-03-04T13:08:29;95054.81;;;13.05;93.97
8298;BME280;4187;42.778;23.242;2023-03-04T13:11:01;95059.09;;;12.98;95.71
8298;BME280;4187;42.778;23.242;2023-03-04T13:13:37;95052.97;;;12.90;96.08
8298;BME280;4187;42.778;23.242;2023-03-04T13:16:05;95045.53;;;12.85;95.72
8298;BME280;4187;42.778;23.242;2023-03-04T13:18:33;95044.22;;;12.81;95.97
8298;BME280;4187;42.778;23.242;2023-03-04T13:21:16;95037.56;;;12.77;96.38
8298;BME280;4187;42.778;23.242;2023-03-04T13:23:47;95040.22;;;12.77;96.91
8298;BME280;4187;42.778;23.242;2023-03-04T13:26:22;95004.81;;;12.62;97.10
8298;BME280;4187;42.778;23.242;2023-03-04T13:29:07;95029.44;;;12.79;96.37